createdAt,value
2022-08-12T00:02:03.342Z,38.98
2022-08-12T00:04:23.935Z,39.30
2022-08-12T00:06:50.316Z,39.27
2022-08-12T00:09:16.688Z,39.17
2022-08-12T00:11:43.048Z,39.28
2022-08-12T00:14:09.412Z,39.39
2022-08-12T00:16:35.771Z,39.38
2022-08-12T00:19:02.139Z,39.08
2022-08-12T00:21:28.501Z,39.51
2022-08-12T00:23:55.265Z,39.45
2022-08-12T00:26:24.430Z,39.92
2022-08-12T00:28:51.070Z,39.51
2022-08-12T00:31:20.550Z,39.64
2022-08-12T00:33:52.689Z,39.53
2022-08-12T00:36:34.604Z,39.72
2022-08-12T00:39:02.688Z,39.51
2022-08-12T00:41:29.039Z,39.54
2022-08-12T00:43:56.182Z,39.17
2022-08-12T00:46:22.722Z,39.42
2022-08-12T00:48:49.094Z,39.15
2022-08-12T00:51:15.451Z,39.58
2022-08-12T00:53:42.633Z,39.64
2022-08-12T00:56:08.989Z,39.57
2022-08-12T00:58:35.355Z,39.87
2022-08-12T01:01:01.764Z,39.87
2022-08-12T01:03:28.147Z,40.01
2022-08-12T01:05:54.520Z,39.64
2022-08-12T01:08:20.875Z,39.95
2022-08-12T01:10:47.242Z,39.78
2022-08-12T01:13:19.895Z,39.51
2022-08-12T01:15:46.684Z,39.93
2022-08-12T01:18:13.057Z,39.81
2022-08-12T01:20:39.417Z,39.69
2022-08-12T01:23:05.791Z,40.03
2022-08-12T01:25:32.146Z,39.97
2022-08-12T01:27:58.519Z,39.73
2022-08-12T01:30:24.895Z,40.01
2022-08-12T01:32:51.253Z,39.60
2022-08-12T01:35:17.616Z,39.84
2022-08-12T01:37:43.971Z,39.82
2022-08-12T01:40:34.201Z,39.87
2022-08-12T01:42:56.670Z,39.80
2022-08-12T01:45:23.058Z,39.79
2022-08-12T01:47:49.418Z,39.58
2022-08-12T01:50:15.798Z,39.84
2022-08-12T01:52:42.152Z,39.95
2022-08-12T01:55:08.514Z,40.00
2022-08-12T01:57:59.775Z,39.93
2022-08-12T02:00:21.211Z,39.94
2022-08-12T02:03:02.172Z,39.93
2022-08-12T02:05:28.549Z,39.97
2022-08-12T02:07:59.474Z,39.48
2022-08-12T02:10:49.523Z,39.33
2022-08-12T02:13:12.177Z,39.47
2022-08-12T02:15:38.539Z,39.28
2022-08-12T02:18:04.895Z,39.14
2022-08-12T02:20:51.067Z,39.10
2022-08-12T02:23:17.605Z,39.64
2022-08-12T02:25:43.977Z,39.17
2022-08-12T02:28:10.337Z,39.50
2022-08-12T02:30:41.936Z,38.99
2022-08-12T02:33:08.552Z,39.26
2022-08-12T02:35:34.904Z,39.42
2022-08-12T02:38:01.275Z,39.49
2022-08-12T02:40:27.634Z,39.25
2022-08-12T02:42:54.002Z,39.19
2022-08-12T02:45:20.365Z,39.12
2022-08-12T02:47:58.852Z,39.03
2022-08-12T02:50:27.372Z,38.97
2022-08-12T02:52:53.741Z,38.91
2022-08-12T02:55:28.427Z,38.93
2022-08-12T02:58:00.561Z,39.14
2022-08-12T03:00:33.145Z,38.71
2022-08-12T03:02:59.519Z,39.13
2022-08-12T03:05:25.890Z,38.76
2022-08-12T03:07:59.330Z,38.96
2022-08-12T03:10:37.579Z,39.24
2022-08-12T03:13:04.161Z,39.19
2022-08-12T03:15:30.546Z,39.10
2022-08-12T03:18:27.337Z,38.71
2022-08-12T03:20:43.255Z,39.17
2022-08-12T03:23:09.659Z,39.35
2022-08-12T03:25:36.025Z,38.75
2022-08-12T03:28:02.379Z,39.16
2022-08-12T03:30:28.744Z,38.72
2022-08-12T03:32:55.093Z,38.60
2022-08-12T03:35:40.038Z,38.84
2022-08-12T03:38:08.064Z,39.06
2022-08-12T03:40:35.851Z,39.12
2022-08-12T03:43:02.212Z,39.17
2022-08-12T03:45:28.568Z,39.06
2022-08-12T03:47:54.933Z,39.14
2022-08-12T03:50:21.289Z,39.08
2022-08-12T03:52:47.650Z,39.01
2022-08-12T03:55:14.022Z,38.74
2022-08-12T03:57:40.372Z,39.28
2022-08-12T04:00:08.659Z,39.03
2022-08-12T04:02:39.582Z,39.22
2022-08-12T04:05:06.040Z,39.37
2022-08-12T04:07:34.447Z,38.91
2022-08-12T04:10:00.809Z,39.50
2022-08-12T04:12:27.172Z,39.17
2022-08-12T04:14:58.876Z,39.43
2022-08-12T04:17:25.242Z,39.20
2022-08-12T04:19:51.602Z,38.99
2022-08-12T04:22:17.966Z,39.56
2022-08-12T04:24:47.705Z,39.18
2022-08-12T04:27:17.104Z,39.15
2022-08-12T04:30:29.190Z,39.48
2022-08-12T04:32:29.801Z,39.08
2022-08-12T04:34:56.169Z,39.17
2022-08-12T04:37:22.517Z,39.06
2022-08-12T04:39:48.997Z,39.04
2022-08-12T04:42:15.504Z,39.14
2022-08-12T04:44:41.860Z,39.04
2022-08-12T04:47:08.230Z,39.24
2022-08-12T04:49:34.587Z,38.89
2022-08-12T04:52:00.954Z,39.39
2022-08-12T04:54:27.335Z,40.05
2022-08-12T04:57:03.274Z,40.63
2022-08-12T04:59:31.280Z,45.06
2022-08-12T05:02:16.541Z,43.57
2022-08-12T05:04:46.669Z,43.38
2022-08-12T05:07:13.037Z,42.54
2022-08-12T05:09:59.892Z,42.19
2022-08-12T05:12:25.757Z,41.92
2022-08-12T05:14:52.141Z,42.21
2022-08-12T05:17:18.507Z,41.91
2022-08-12T05:19:45.986Z,41.99
2022-08-12T05:22:12.347Z,41.72
2022-08-12T05:24:38.715Z,41.73
2022-08-12T05:27:05.089Z,41.25
2022-08-12T05:30:07.126Z,41.39
2022-08-12T05:32:17.808Z,41.47
2022-08-12T05:34:44.172Z,41.20
2022-08-12T05:37:10.536Z,41.09
2022-08-12T05:39:36.985Z,40.93
2022-08-12T05:42:03.436Z,40.75
2022-08-12T05:44:29.814Z,40.69
2022-08-12T05:46:56.191Z,40.45
2022-08-12T05:49:22.564Z,40.23
2022-08-12T05:51:48.922Z,40.40
2022-08-12T05:54:15.288Z,40.13
2022-08-12T05:56:41.871Z,39.93
2022-08-12T05:59:08.360Z,39.89
2022-08-12T06:02:12.184Z,39.62
2022-08-12T06:04:21.047Z,39.40
2022-08-12T06:06:47.409Z,40.20
2022-08-12T06:09:13.774Z,40.87
2022-08-12T06:11:40.141Z,39.93
2022-08-12T06:14:20.035Z,39.54
2022-08-12T06:16:49.760Z,39.40
2022-08-12T06:19:16.125Z,39.58
2022-08-12T06:21:42.493Z,39.27
2022-08-12T06:24:08.854Z,39.35
2022-08-12T06:26:35.223Z,39.79
2022-08-12T06:29:01.579Z,42.60
2022-08-12T06:31:27.994Z,42.22
2022-08-12T06:33:55.642Z,41.65
2022-08-12T06:36:24.270Z,40.99
2022-08-12T06:38:56.178Z,41.27
2022-08-12T06:41:22.551Z,40.71
2022-08-12T06:44:06.771Z,40.97
2022-08-12T06:46:34.220Z,40.65
2022-08-12T06:49:00.577Z,40.79
2022-08-12T06:51:26.940Z,40.06
2022-08-12T06:53:53.314Z,40.14
2022-08-12T06:56:19.696Z,39.54
2022-08-12T06:58:46.052Z,39.59
2022-08-12T07:01:12.458Z,39.65
2022-08-12T07:03:38.922Z,39.71
2022-08-12T07:06:05.287Z,39.43
2022-08-12T07:08:31.662Z,39.64
2022-08-12T07:10:58.040Z,39.57
2022-08-12T07:13:24.407Z,39.09
2022-08-12T07:15:50.776Z,39.35
2022-08-12T07:18:17.141Z,39.00
2022-08-12T07:20:52.840Z,38.89
2022-08-12T07:23:19.548Z,39.17
2022-08-12T07:25:45.908Z,39.18
2022-08-12T07:28:16.910Z,38.89
2022-08-12T07:30:43.634Z,39.02
2022-08-12T07:33:09.989Z,39.41
2022-08-12T07:35:36.349Z,38.99
2022-08-12T07:38:02.724Z,38.94
2022-08-12T07:40:29.098Z,39.03
2022-08-12T07:42:55.452Z,38.75
2022-08-12T07:45:21.798Z,39.18
2022-08-12T07:47:48.165Z,38.96
2022-08-12T07:50:14.531Z,39.22
2022-08-12T07:52:41.026Z,38.93
2022-08-12T07:55:07.468Z,38.96
2022-08-12T07:57:33.864Z,38.64
2022-08-12T08:00:00.210Z,38.93
2022-08-12T08:02:31.560Z,38.84
2022-08-12T08:04:58.024Z,38.72
2022-08-12T08:07:24.394Z,38.89
2022-08-12T08:09:50.954Z,38.76
2022-08-12T08:12:25.102Z,38.48
2022-08-12T08:14:51.864Z,38.41
2022-08-12T08:17:18.235Z,38.44
2022-08-12T08:20:01.946Z,38.41
2022-08-12T08:22:39.343Z,38.64
2022-08-12T08:25:36.790Z,38.32
2022-08-12T08:27:53.869Z,38.35
2022-08-12T08:30:20.276Z,38.58
2022-08-12T08:32:46.672Z,38.06
2022-08-12T08:35:13.044Z,38.68
2022-08-12T08:37:41.016Z,38.65
2022-08-12T08:40:07.781Z,38.29
2022-08-12T08:42:34.140Z,38.13
2022-08-12T08:45:00.489Z,38.47
2022-08-12T08:47:26.871Z,38.56
2022-08-12T08:49:53.240Z,38.09
2022-08-12T08:52:39.814Z,37.96
2022-08-12T08:55:05.928Z,38.42
2022-08-12T08:57:43.672Z,38.11
2022-08-12T09:00:10.870Z,38.84
2022-08-12T09:02:41.998Z,37.95
2022-08-12T09:05:25.394Z,38.37
2022-08-12T09:08:11.981Z,38.48
2022-08-12T09:10:38.608Z,38.28
2022-08-12T09:13:06.178Z,38.57
2022-08-12T09:15:35.843Z,38.27
2022-08-12T09:18:02.550Z,38.93
2022-08-12T09:32:03.316Z,38.49
2022-08-12T09:34:29.490Z,38.78
2022-08-12T09:37:00.184Z,38.59
2022-08-12T09:40:07.932Z,38.50
2022-08-12T09:42:41.075Z,38.74
2022-08-12T09:45:18.420Z,38.44
2022-08-12T09:47:45.895Z,38.89
2022-08-12T09:50:23.444Z,38.52
2022-08-12T09:52:54.357Z,38.56
2022-08-12T09:56:03.798Z,39.21
2022-08-12T09:58:58.061Z,39.25
2022-08-12T10:00:55.869Z,39.10
2022-08-12T10:03:31.941Z,38.73
2022-08-12T10:06:19.886Z,38.99
2022-08-12T10:08:46.817Z,38.85
2022-08-12T10:11:20.334Z,39.14
2022-08-12T10:13:47.148Z,38.89
2022-08-12T10:16:22.208Z,38.95
2022-08-12T10:18:51.625Z,39.51
2022-08-12T10:21:19.072Z,39.40
2022-08-12T10:23:45.983Z,39.52
2022-08-12T10:26:37.944Z,39.63
2022-08-12T10:29:02.595Z,39.39
2022-08-12T10:31:29.456Z,39.48
2022-08-12T10:34:24.017Z,39.72
2022-08-12T10:36:53.085Z,39.81
2022-08-12T10:39:44.258Z,39.71
2022-08-12T10:42:06.853Z,39.33
2022-08-12T10:44:33.264Z,39.64
2022-08-12T10:47:01.542Z,39.77
2022-08-12T10:50:02.438Z,40.02
2022-08-12T10:52:37.803Z,40.00
2022-08-12T10:55:06.801Z,39.90
2022-08-12T10:58:14.811Z,39.80
2022-08-12T11:00:34.161Z,40.17
2022-08-12T11:04:19.069Z,40.44
2022-08-12T11:07:07.718Z,40.10
2022-08-12T11:08:43.714Z,39.99
2022-08-12T11:11:13.765Z,40.49
2022-08-12T11:13:46.680Z,40.57
2022-08-12T11:16:22.478Z,39.98
2022-08-12T11:18:55.355Z,40.41
2022-08-12T11:21:22.275Z,40.52
2022-08-12T11:23:53.595Z,40.56
2022-08-12T11:26:21.570Z,40.42
2022-08-12T11:28:59.334Z,40.42
2022-08-12T11:31:56.329Z,40.69
2022-08-12T11:34:52.005Z,40.37
2022-08-12T11:37:05.131Z,40.96
2022-08-12T11:42:33.211Z,40.48
2022-08-12T11:44:59.564Z,40.70
2022-08-12T11:47:25.921Z,40.65
2022-08-12T11:49:52.484Z,40.90
2022-08-12T11:52:55.981Z,41.17
2022-08-12T11:55:05.192Z,40.78
2022-08-12T11:58:01.223Z,40.67
2022-08-12T12:03:04.464Z,40.90
2022-08-12T12:05:42.003Z,40.52
2022-08-12T12:08:40.726Z,40.98
2022-08-12T12:10:59.324Z,40.94
2022-08-12T12:14:08.482Z,41.00
2022-08-12T12:16:13.283Z,41.21
2022-08-12T12:18:39.644Z,40.91
2022-08-12T12:21:06.004Z,41.26
2022-08-12T12:23:36.277Z,41.07
2022-08-12T12:26:08.281Z,41.12
2022-08-12T12:28:38.005Z,41.03
2022-08-12T12:31:15.247Z,41.11
2022-08-12T12:33:58.084Z,40.96
2022-08-12T12:36:29.668Z,41.29
2022-08-12T12:38:57.230Z,41.19
2022-08-12T12:42:13.477Z,41.32
2022-08-12T12:44:13.494Z,41.27
2022-08-12T12:46:52.568Z,41.50
2022-08-12T12:49:21.242Z,41.53
2022-08-12T12:52:18.383Z,41.58
2022-08-12T12:54:39.181Z,41.57
2022-08-12T12:57:06.582Z,41.49
2022-08-12T12:59:55.993Z,41.20
2022-08-12T13:02:31.613Z,41.56
2022-08-12T13:04:58.324Z,41.49
2022-08-12T13:07:54.351Z,41.53
2022-08-12T13:10:11.061Z,41.33
2022-08-12T13:12:39.841Z,41.64
2022-08-12T13:15:06.335Z,41.81
2022-08-12T13:18:02.108Z,41.54
2022-08-12T13:20:33.589Z,41.28
2022-08-12T13:23:03.942Z,41.43
2022-08-12T13:25:50.279Z,41.69
2022-08-12T13:28:16.679Z,41.76
2022-08-12T13:30:43.039Z,41.81
2022-08-12T13:33:17.753Z,41.82
2022-08-12T13:36:05.668Z,41.48
2022-08-12T13:38:35.103Z,41.56
2022-08-12T13:41:01.679Z,41.96
2022-08-12T13:43:40.399Z,41.75
2022-08-12T13:46:07.940Z,41.75
2022-08-12T13:48:38.386Z,41.71
2022-08-12T13:51:04.743Z,41.58
2022-08-12T13:53:54.774Z,41.35
2022-08-12T13:56:17.444Z,41.58
2022-08-12T13:58:47.025Z,41.63
2022-08-12T14:01:18.889Z,41.50
2022-08-12T14:03:51.545Z,41.51
2022-08-12T14:06:18.229Z,41.44
2022-08-12T14:08:45.077Z,41.41
2022-08-12T14:11:16.380Z,41.39
2022-08-12T14:14:03.254Z,41.56
2022-08-12T14:16:48.421Z,41.44
2022-08-12T14:19:25.051Z,41.46
2022-08-12T14:21:59.302Z,41.56
2022-08-12T14:24:27.017Z,41.52
2022-08-12T14:26:53.654Z,41.67
2022-08-12T14:29:21.772Z,41.55
2022-08-12T14:32:04.364Z,41.12
2022-08-12T14:34:30.873Z,41.54
2022-08-12T14:36:57.729Z,41.19
2022-08-12T14:39:24.180Z,41.58
2022-08-12T14:41:57.380Z,41.55
2022-08-12T14:44:57.312Z,41.43
2022-08-12T14:47:10.208Z,41.48
2022-08-12T14:50:33.906Z,41.53
2022-08-12T14:53:12.176Z,41.34
2022-08-12T14:57:56.963Z,41.64
2022-08-12T15:00:23.794Z,41.49
2022-08-12T15:02:53.052Z,41.65
2022-08-12T15:06:05.687Z,41.31
2022-08-12T15:08:07.170Z,41.37
2022-08-12T15:10:35.428Z,41.31
2022-08-12T15:13:02.156Z,41.44
2022-08-12T15:15:32.543Z,41.69
2022-08-12T15:18:02.125Z,41.64
2022-08-12T15:20:37.445Z,41.46
2022-08-12T15:23:04.566Z,41.20
2022-08-12T15:25:47.293Z,41.13
2022-08-12T15:28:21.465Z,41.41
2022-08-12T15:30:48.568Z,41.59
2022-08-12T15:33:18.880Z,41.70
2022-08-12T15:35:54.001Z,41.54
2022-08-12T15:38:21.244Z,41.75
2022-08-12T15:40:48.621Z,41.65
2022-08-12T15:43:15.071Z,41.87
2022-08-12T15:46:01.402Z,41.47
2022-08-12T15:48:30.502Z,41.51
2022-08-12T15:50:56.987Z,42.10
2022-08-12T15:53:23.489Z,42.16
2022-08-12T15:55:53.473Z,42.38
2022-08-12T15:58:27.109Z,42.18
2022-08-12T16:00:53.577Z,42.26
2022-08-12T16:03:25.797Z,42.33
2022-08-12T16:06:11.080Z,42.23
2022-08-12T16:08:38.610Z,42.34
2022-08-12T16:11:07.392Z,42.25
2022-08-12T16:13:44.343Z,42.64
2022-08-12T16:16:22.790Z,42.30
2022-08-12T16:18:50.588Z,42.55
2022-08-12T16:21:52.909Z,42.37
2022-08-12T16:24:03.303Z,42.44
2022-08-12T16:26:32.477Z,42.41
2022-08-12T16:29:14.640Z,41.95
2022-08-12T16:31:42.141Z,42.46
2022-08-12T16:34:10.702Z,42.77
2022-08-12T16:36:51.744Z,42.55
2022-08-12T16:39:19.849Z,42.50
2022-08-12T16:41:46.528Z,42.67
2022-08-12T16:44:12.912Z,42.57
2022-08-12T16:46:58.038Z,42.28
2022-08-12T16:49:24.632Z,42.82
2022-08-12T16:51:51.849Z,42.22
2022-08-12T16:54:18.209Z,42.71
2022-08-12T16:56:54.928Z,42.41
2022-08-12T16:59:23.863Z,42.73
2022-08-12T17:01:50.472Z,42.75
2022-08-12T17:04:18.093Z,43.10
2022-08-12T17:06:44.862Z,42.85
2022-08-12T17:09:17.028Z,42.58
2022-08-12T17:11:44.443Z,43.23
2022-08-12T17:14:10.830Z,43.00
2022-08-12T17:16:38.126Z,42.92
2022-08-12T17:19:09.418Z,43.10
2022-08-12T17:21:41.445Z,43.09
2022-08-12T17:24:18.491Z,42.96
2022-08-12T17:26:49.626Z,43.05
2022-08-12T17:29:16.598Z,43.20
2022-08-12T17:32:01.302Z,43.13
2022-08-12T17:34:28.505Z,43.09
2022-08-12T17:36:54.920Z,43.24
2022-08-12T17:39:21.542Z,43.11
2022-08-12T17:41:56.369Z,43.33
2022-08-12T17:44:23.594Z,42.95
2022-08-12T17:46:53.815Z,43.46
2022-08-12T17:50:01.761Z,43.42
2022-08-12T17:52:06.832Z,43.20
2022-08-12T17:54:33.194Z,43.34
2022-08-12T17:56:59.577Z,42.93
2022-08-12T17:59:48.043Z,43.71
2022-08-12T18:02:14.034Z,43.70
2022-08-12T18:04:40.414Z,43.59
2022-08-12T18:07:27.999Z,43.80
2022-08-12T18:09:55.140Z,43.43
2022-08-12T18:12:24.262Z,43.61
2022-08-12T18:14:52.766Z,43.35
2022-08-12T18:17:20.128Z,43.72
2022-08-12T18:20:06.281Z,43.70
2022-08-12T18:22:33.901Z,42.89
2022-08-12T18:25:02.222Z,42.56
2022-08-12T18:27:43.517Z,41.91
2022-08-12T18:30:11.892Z,40.56
2022-08-12T18:32:58.687Z,40.15
2022-08-12T18:35:30.185Z,40.50
2022-08-12T18:38:11.312Z,39.24
2022-08-12T18:40:42.990Z,38.82
2022-08-12T18:43:15.328Z,37.92
2022-08-12T18:45:46.943Z,38.26
2022-08-12T18:48:23.232Z,36.66
2022-08-12T18:50:50.138Z,33.37
2022-08-12T18:54:05.694Z,35.48
2022-08-12T18:56:02.980Z,33.11
2022-08-12T18:58:30.165Z,33.14
2022-08-12T19:00:56.868Z,34.37
2022-08-12T19:03:39.808Z,33.45
2022-08-12T19:06:06.610Z,33.36
2022-08-12T19:08:32.967Z,31.71
2022-08-12T19:10:59.330Z,32.63
2022-08-12T19:13:27.077Z,30.61
2022-08-12T19:16:01.347Z,30.07
2022-08-12T19:18:30.187Z,29.57
2022-08-12T19:20:58.327Z,29.95
2022-08-12T19:23:24.895Z,28.17
2022-08-12T19:26:02.697Z,30.80
2022-08-12T19:28:34.733Z,28.63
2022-08-12T19:31:02.154Z,29.04
2022-08-12T19:33:28.511Z,30.52
2022-08-12T19:36:07.450Z,29.83
2022-08-12T19:38:46.794Z,29.96
2022-08-12T19:41:23.276Z,29.71
2022-08-12T19:44:16.758Z,29.95
2022-08-12T19:46:51.904Z,30.62
2022-08-12T19:49:19.590Z,31.30
2022-08-12T19:51:48.692Z,29.25
2022-08-12T19:54:15.203Z,30.51
2022-08-12T19:56:41.582Z,28.90
2022-08-12T19:59:09.966Z,29.18
2022-08-12T20:02:01.682Z,29.25
2022-08-12T20:04:22.688Z,29.62
2022-08-12T20:06:51.566Z,29.46
2022-08-12T20:09:19.864Z,30.33
2022-08-12T20:12:11.272Z,29.83
2022-08-12T20:14:34.572Z,29.72
2022-08-12T20:17:02.643Z,29.66
2022-08-12T20:20:05.670Z,30.58
2022-08-12T20:22:16.621Z,30.80
2022-08-12T20:24:50.118Z,31.14
2022-08-12T20:27:29.449Z,31.62
2022-08-12T20:30:08.138Z,30.93
2022-08-12T20:32:37.580Z,30.95
2022-08-12T20:35:19.746Z,31.02
2022-08-12T20:38:07.696Z,31.27
2022-08-12T20:40:38.250Z,31.10
2022-08-12T20:43:04.742Z,31.78
2022-08-12T20:45:50.618Z,31.60
2022-08-12T20:48:17.700Z,31.37
2022-08-12T20:50:47.616Z,31.78
2022-08-12T20:53:32.974Z,31.45
2022-08-12T20:56:06.415Z,31.46
2022-08-12T20:58:33.289Z,32.08
2022-08-12T21:00:59.642Z,31.80
2022-08-12T21:03:26.525Z,31.62
2022-08-12T21:06:11.822Z,31.58
2022-08-12T21:08:39.497Z,31.51
2022-08-12T21:11:05.876Z,31.86
2022-08-12T21:13:39.286Z,31.56
2022-08-12T21:16:09.851Z,31.78
2022-08-12T21:18:36.595Z,31.93
2022-08-12T21:21:02.956Z,32.13
2022-08-12T21:23:30.824Z,31.60
2022-08-12T21:26:03.278Z,31.53
2022-08-12T21:28:31.629Z,31.72
2022-08-12T21:32:37.871Z,31.25
2022-08-12T21:33:58.515Z,31.67
2022-08-12T21:36:34.585Z,32.03
2022-08-12T21:39:01.691Z,31.74
2022-08-12T21:41:45.817Z,32.05
2022-08-12T21:44:24.420Z,31.57
2022-08-12T21:47:03.064Z,31.63
2022-08-12T21:49:55.424Z,31.74
2022-08-12T21:52:17.112Z,31.78
2022-08-12T21:54:43.472Z,32.26
2022-08-12T21:57:09.856Z,32.20
2022-08-12T21:59:39.261Z,32.25
2022-08-12T22:02:05.637Z,32.57
2022-08-12T22:04:32.005Z,32.44
2022-08-12T22:06:59.418Z,32.43
2022-08-12T22:09:25.837Z,32.97
2022-08-12T22:11:59.128Z,32.61
2022-08-12T22:14:25.947Z,32.31
2022-08-12T22:16:52.301Z,32.15
2022-08-12T22:19:18.739Z,31.99
2022-08-12T22:21:48.516Z,31.88
2022-08-12T22:24:26.981Z,31.69
2022-08-12T22:26:56.552Z,31.89
2022-08-12T22:29:23.439Z,32.29
2022-08-12T22:31:49.809Z,32.22
2022-08-12T22:34:18.397Z,31.97
2022-08-12T22:36:45.157Z,31.85
2022-08-12T22:39:12.054Z,32.30
2022-08-12T22:41:42.726Z,31.91
2022-08-12T22:44:09.140Z,32.13
2022-08-12T22:46:36.732Z,31.74
2022-08-12T22:49:03.459Z,31.87
2022-08-12T22:52:00.098Z,31.81
2022-08-12T22:54:35.164Z,32.21
2022-08-12T22:57:03.547Z,32.39
2022-08-12T22:59:51.224Z,32.41
2022-08-12T23:02:16.244Z,32.61
2022-08-12T23:04:42.609Z,32.54
2022-08-12T23:07:09.484Z,32.28
2022-08-12T23:09:48.148Z,32.72
2022-08-12T23:12:22.658Z,32.87
2022-08-12T23:14:51.595Z,32.88
2022-08-12T23:17:21.358Z,33.09
2022-08-12T23:20:04.317Z,33.65
2022-08-12T23:22:36.736Z,33.65
2022-08-12T23:25:03.680Z,33.72
2022-08-12T23:27:44.081Z,33.91
2022-08-12T23:30:19.546Z,34.09
2022-08-12T23:32:54.208Z,34.23
2022-08-12T23:35:22.555Z,34.13
2022-08-12T23:37:54.554Z,33.89
2022-08-12T23:40:22.488Z,33.92
2022-08-12T23:42:50.956Z,33.78
2022-08-12T23:45:20.121Z,33.67
2022-08-12T23:47:57.541Z,33.41
2022-08-12T23:50:23.956Z,33.22
2022-08-12T23:52:59.952Z,33.37
2022-08-12T23:55:29.120Z,33.24
2022-08-12T23:58:22.440Z,33.41
